Time;durP1;ratioP1;P1;durP2;ratioP2;P2;SDS_P1;SDS_P2;PMS_P1;PMS_P2;Temp;Humidity;BMP_temperature;BMP_pressure;BME280_temperature;BME280_humidity;BME280_pressure;Samples;Min_cycle;Max_cycle;Signal;HPM_P1;HPM_P2
2023/09/21 00:00:10;;;;;;;3.70;2.80;;;;;;;16.01;100.00;97260.16;5073706;28;20586;-80
2023/09/21 00:02:36;;;;;;;3.60;3.00;;;;;;;16.02;100.00;97251.97;5073824;28;20238;-80
2023/09/21 00:05:06;;;;;;;4.20;2.67;;;;;;;16.02;100.00;97250.16;5073380;28;20674;-80
2023/09/21 00:07:32;;;;;;;5.23;2.90;;;;;;;15.98;100.00;97248.78;5073129;28;20214;-80
2023/09/21 00:09:59;;;;;;;5.47;3.20;;;;;;;15.94;100.00;97243.13;5073375;28;20269;-80
2023/09/21 00:12:26;;;;;;;3.20;2.70;;;;;;;15.89;100.00;97238.25;5073435;28;20328;-80
2023/09/21 00:14:53;;;;;;;4.53;3.10;;;;;;;15.90;100.00;97231.97;5074032;28;20238;-80
2023/09/21 00:17:21;;;;;;;3.83;3.10;;;;;;;15.89;100.00;97237.44;5074540;28;20211;-79
2023/09/21 00:19:50;;;;;;;3.90;2.93;;;;;;;15.82;100.00;97234.56;5074256;28;20294;-79
2023/09/21 00:22:20;;;;;;;4.07;3.00;;;;;;;15.74;100.00;97239.88;5073664;28;20575;-79
2023/09/21 00:24:47;;;;;;;3.83;2.80;;;;;;;15.70;100.00;97227.03;5073038;28;20222;-79
2023/09/21 00:27:14;;;;;;;5.07;3.10;;;;;;;15.71;100.00;97228.69;5073032;28;20288;-79
2023/09/21 00:29:40;;;;;;;4.27;2.80;;;;;;;15.72;100.00;97225.03;5072929;28;20261;-79
2023/09/21 00:32:10;;;;;;;3.87;2.90;;;;;;;15.71;100.00;97223.38;5072517;28;20227;-79
2023/09/21 00:34:38;;;;;;;7.33;3.50;;;;;;;15.68;100.00;97219.19;5073225;28;20290;-79
2023/09/21 00:37:05;;;;;;;3.70;3.30;;;;;;;15.61;100.00;97212.00;5072513;28;20302;-79
2023/09/21 00:39:32;;;;;;;3.70;3.13;;;;;;;15.60;100.00;97220.97;5072717;28;20203;-79
2023/09/21 00:41:58;;;;;;;4.23;2.83;;;;;;;15.57;100.00;97210.66;5073009;28;20235;-80
2023/09/21 00:44:26;;;;;;;4.83;3.50;;;;;;;15.54;100.00;97210.97;5073613;28;20211;-79
2023/09/21 00:46:53;;;;;;;4.40;3.30;;;;;;;15.49;100.00;97208.78;5074638;28;20207;-79
2023/09/21 00:49:20;;;;;;;5.00;3.30;;;;;;;15.48;100.00;97211.59;5075078;28;20634;-79
2023/09/21 00:51:48;;;;;;;3.77;3.20;;;;;;;15.47;100.00;97205.41;5074676;28;20227;-79
2023/09/21 00:54:15;;;;;;;5.73;3.77;;;;;;;15.48;100.00;97206.28;5074487;28;20289;-79
2023/09/21 00:56:41;;;;;;;7.20;3.30;;;;;;;15.47;100.00;97204.59;5074636;28;20207;-79
2023/09/21 00:59:08;;;;;;;4.60;3.10;;;;;;;15.46;100.00;97194.94;5074305;28;20219;-79
2023/09/21 01:01:38;;;;;;;4.17;2.73;;;;;;;15.43;100.00;97200.56;5073409;28;20231;-80
2023/09/21 01:04:06;;;;;;;4.93;3.23;;;;;;;15.42;100.00;97198.91;5073782;28;20627;-79
2023/09/21 01:06:33;;;;;;;3.93;3.03;;;;;;;15.41;100.00;97197.25;5072142;28;20203;-79
2023/09/21 01:09:03;;;;;;;6.23;3.63;;;;;;;15.40;100.00;97198.25;5072474;28;20632;-79
2023/09/21 01:11:30;;;;;;;4.40;3.20;;;;;;;15.37;100.00;97198.53;5072461;28;20304;-79
2023/09/21 01:13:57;;;;;;;4.93;2.70;;;;;;;15.42;100.00;97198.91;5072544;28;20214;-79
2023/09/21 01:16:24;;;;;;;5.27;3.23;;;;;;;15.42;100.00;97191.78;5073468;28;20211;-79
2023/09/21 01:18:52;;;;;;;5.87;3.40;;;;;;;15.43;100.00;97189.94;5072164;28;20662;-79
2023/09/21 01:21:26;;;;;;;4.93;3.13;;;;;;;15.45;100.00;97185.28;5072002;28;20409;-79
2023/09/21 01:23:56;;;;;;;5.43;3.57;;;;;;;15.42;100.00;97185.59;5072317;28;20215;-79
2023/09/21 01:26:23;;;;;;;4.40;3.27;;;;;;;15.40;100.00;97188.41;5072397;28;20242;-79
2023/09/21 01:28:49;;;;;;;4.47;2.90;;;;;;;15.41;100.00;97184.75;5072508;28;20203;-79
2023/09/21 01:31:17;;;;;;;4.07;3.10;;;;;;;15.41;100.00;97184.75;5072210;28;20342;-79
2023/09/21 01:33:44;;;;;;;3.20;2.60;;;;;;;15.41;100.00;97184.75;5072420;28;20658;-79
2023/09/21 01:36:12;;;;;;;2.90;2.60;;;;;;;15.36;100.00;97180.91;5072604;28;20218;-81
2023/09/21 01:38:43;;;;;;;2.97;2.37;;;;;;;15.32;100.00;97180.38;5072687;28;20213;-79
2023/09/21 01:41:12;;;;;;;3.27;2.60;;;;;;;15.35;100.00;97182.75;5072114;28;20326;-80
2023/09/21 01:43:39;;;;;;;4.00;2.57;;;;;;;15.32;100.00;97174.19;5076684;28;20602;-80
2023/09/21 01:46:06;;;;;;;2.97;2.30;;;;;;;15.32;100.00;97166.19;5076620;28;20565;-80
2023/09/21 01:48:32;;;;;;;2.33;2.13;;;;;;;15.29;100.00;97164.72;5076220;28;20222;-80
2023/09/21 01:50:59;;;;;;;3.07;2.30;;;;;;;15.29;100.00;97162.06;5076005;28;20732;-80
2023/09/21 01:53:26;;;;;;;2.70;2.40;;;;;;;15.25;100.00;97158.03;5076173;28;20218;-80
2023/09/21 01:55:53;;;;;;;3.27;2.40;;;;;;;15.22;100.00;97168.16;5076177;28;20218;-80
2023/09/21 01:58:23;;;;;;;2.63;2.20;;;;;;;15.20;100.00;97164.81;5076260;28;20592;-80
2023/09/21 02:00:50;;;;;;;3.60;2.50;;;;;;;15.17;100.00;97154.47;5075457;28;20237;-80
2023/09/21 02:03:18;;;;;;;2.90;2.30;;;;;;;15.16;100.00;97152.81;5074463;28;20212;-79
2023/09/21 02:05:47;;;;;;;3.37;2.60;;;;;;;15.14;100.00;97150.31;5075474;28;20211;-80
2023/09/21 02:08:17;;;;;;;4.27;2.83;;;;;;;15.15;100.00;97159.13;5075641;28;20215;-80
2023/09/21 02:10:44;;;;;;;6.00;3.00;;;;;;;15.18;100.00;97156.16;5076125;28;20585;-80
2023/09/21 02:13:11;;;;;;;3.20;2.60;;;;;;;15.21;100.00;97150.53;5076268;28;20207;-80
2023/09/21 02:15:39;;;;;;;3.50;2.77;;;;;;;15.26;100.00;97143.72;5075851;28;20207;-80
2023/09/21 02:18:07;;;;;;;4.60;3.53;;;;;;;15.28;100.00;97140.91;5075861;28;20246;-80
2023/09/21 02:20:36;;;;;;;5.67;3.73;;;;;;;15.31;100.00;97135.25;5075219;28;20235;-80
2023/09/21 02:23:03;;;;;;;6.80;4.20;;;;;;;15.31;100.00;97133.44;5074916;28;20207;-80
2023/09/21 02:25:31;;;;;;;5.97;3.70;;;;;;;15.30;100.00;97130.94;5075706;28;20489;-80
2023/09/21 02:27:58;;;;;;;5.57;3.57;;;;;;;15.27;100.00;97128.59;5075392;28;20203;-80
2023/09/21 02:30:25;;;;;;;5.77;3.57;;;;;;;15.20;100.00;97130.19;5076278;28;20203;-80
2023/09/21 02:32:54;;;;;;;4.03;3.00;;;;;;;15.15;100.00;97119.22;5078266;28;20208;-80
2023/09/21 02:35:23;;;;;;;5.93;3.53;;;;;;;15.11;100.00;97118.69;5077808;28;20218;-80
2023/09/21 02:37:51;;;;;;;4.13;3.23;;;;;;;15.14;100.00;97117.53;5078023;28;20204;-80
2023/09/21 02:40:20;;;;;;;4.57;3.00;;;;;;;15.15;100.00;97124.53;5077178;28;20223;-80
2023/09/21 02:42:48;;;;;;;3.30;2.70;;;;;;;15.19;100.00;97116.06;5077164;28;20300;-80
2023/09/21 02:45:15;;;;;;;3.83;2.90;;;;;;;15.24;100.00;97115.59;5077619;28;20276;-80
2023/09/21 02:47:43;;;;;;;3.37;2.40;;;;;;;15.24;100.00;97108.44;5077537;28;20207;-80
2023/09/21 02:50:15;;;;;;;3.00;2.40;;;;;;;15.24;100.00;97103.13;5077079;28;20231;-80
2023/09/21 02:52:47;;;;;;;4.17;2.40;;;;;;;15.19;100.00;97109.91;5076584;28;20227;-80
2023/09/21 02:55:16;;;;;;;3.03;2.40;;;;;;;15.19;100.00;97105.44;5076293;28;20689;-80
2023/09/21 02:57:43;;;;;;;4.90;2.43;;;;;;;15.26;100.00;97110.94;5077081;28;20217;-80
2023/09/21 03:00:26;;;;;;;3.57;2.13;;;;;;;15.28;100.00;97099.13;5076834;28;20211;-80
2023/09/21 03:02:54;;;;;;;4.90;2.43;;;;;;;15.28;100.00;97098.31;5076931;28;20218;-80
2023/09/21 03:05:23;;;;;;;2.47;2.10;;;;;;;15.27;100.00;97101.97;5076644;28;20654;-80
2023/09/21 03:07:50;;;;;;;3.83;2.23;;;;;;;15.27;100.00;97096.66;5076240;28;20219;-80
2023/09/21 03:10:18;;;;;;;2.80;1.90;;;;;;;15.27;100.00;97099.31;5076780;28;20211;-80
2023/09/21 03:12:47;;;;;;;2.43;2.00;;;;;;;15.27;100.00;97096.66;5076582;28;20656;-80
2023/09/21 03:15:16;;;;;;;2.20;2.00;;;;;;;15.26;100.00;97089.63;5076549;28;20207;-80
2023/09/21 03:17:43;;;;;;;2.30;1.90;;;;;;;15.23;100.00;97089.97;5076146;28;20646;-80
2023/09/21 03:20:12;;;;;;;2.13;1.93;;;;;;;15.20;100.00;97096.44;5076793;28;20235;-80
2023/09/21 03:22:41;;;;;;;2.73;2.30;;;;;;;15.22;100.00;97096.28;5076299;28;20235;-80
2023/09/21 03:25:11;;;;;;;3.03;2.50;;;;;;;15.20;100.00;97091.13;5076534;28;20767;-80
2023/09/21 03:27:40;;;;;;;2.33;2.13;;;;;;;15.20;100.00;97095.59;5076603;28;20206;-80
2023/09/21 03:30:10;;;;;;;2.40;2.20;;;;;;;15.20;100.00;97090.28;5080919;28;20298;-80
2023/09/21 03:32:38;;;;;;;2.50;2.03;;;;;;;15.23;100.00;97079.31;5079174;28;20220;-80
2023/09/21 03:35:06;;;;;;;2.00;1.83;;;;;;;15.23;100.00;97079.31;5078907;28;20211;-80
2023/09/21 03:37:32;;;;;;;2.40;2.20;;;;;;;15.21;100.00;97076.00;5079299;28;20299;-81
2023/09/21 03:40:00;;;;;;;2.93;2.43;;;;;;;15.22;100.00;97078.47;5078558;28;20592;-81
2023/09/21 03:42:27;;;;;;;2.20;2.00;;;;;;;15.22;100.00;97077.66;5077946;28;20231;-80
2023/09/21 03:44:54;;;;;;;2.83;2.30;;;;;;;15.22;100.00;97073.16;5078326;28;20251;-81
2023/09/21 03:47:20;;;;;;;2.77;2.10;;;;;;;15.24;100.00;97059.69;5079077;28;20600;-80
2023/09/21 03:49:47;;;;;;;2.67;2.20;;;;;;;15.26;100.00;97068.34;5078920;28;20207;-80
2023/09/21 03:52:16;;;;;;;3.60;2.60;;;;;;;15.28;100.00;97071.69;5077951;28;20227;-80
2023/09/21 03:54:42;;;;;;;4.07;2.73;;;;;;;15.35;100.00;97072.75;5079262;28;20207;-81
2023/09/21 03:57:11;;;;;;;4.40;2.80;;;;;;;15.41;100.00;97072.09;5079703;28;20207;-80
2023/09/21 03:59:37;;;;;;;3.43;2.80;;;;;;;15.54;100.00;97067.16;5080213;28;20207;-80
2023/09/21 04:02:04;;;;;;;2.93;2.63;;;;;;;15.58;100.00;97063.19;5079007;28;20242;-80
2023/09/21 04:04:31;;;;;;;3.93;2.80;;;;;;;15.62;100.00;97065.34;5078374;28;20214;-80
2023/09/21 04:06:57;;;;;;;4.50;2.80;;;;;;;15.69;100.00;97060.19;5078639;28;20214;-80
2023/09/21 04:09:24;;;;;;;3.50;2.70;;;;;;;15.74;100.00;97063.19;5078059;28;20217;-80
2023/09/21 04:11:50;;;;;;;3.90;2.77;;;;;;;15.76;100.00;97056.72;5077998;28;20227;-80
2023/09/21 04:14:18;;;;;;;3.20;2.43;;;;;;;15.79;100.00;97059.06;5078234;28;20211;-80
2023/09/21 04:16:45;;;;;;;2.80;2.60;;;;;;;15.81;100.00;97058.88;5078199;28;20214;-81
2023/09/21 04:19:14;;;;;;;5.63;3.67;;;;;;;15.82;100.00;97055.25;5078350;28;20211;-81
2023/09/21 04:21:40;;;;;;;5.27;2.93;;;;;;;15.89;100.00;97056.25;5077580;28;20609;-80
2023/09/21 04:24:08;;;;;;;3.90;3.10;;;;;;;15.89;100.00;97053.59;5077541;28;20223;-80
2023/09/21 04:26:34;;;;;;;3.90;3.07;;;;;;;15.93;100.00;97054.91;5077440;28;20212;-80
2023/09/21 04:29:01;;;;;;;3.90;2.97;;;;;;;15.93;100.00;97042.41;5077949;28;20216;-80
2023/09/21 04:31:29;;;;;;;3.17;2.60;;;;;;;15.95;100.00;97039.59;5077317;28;20229;-81
2023/09/21 04:33:56;;;;;;;3.30;3.00;;;;;;;15.95;100.00;97035.09;5078676;28;20626;-81
2023/09/21 04:36:24;;;;;;;4.53;3.20;;;;;;;15.98;100.00;97041.91;5078467;28;20212;-80
2023/09/21 04:38:51;;;;;;;5.57;3.53;;;;;;;16.00;100.00;97034.63;5079639;28;20322;-80
2023/09/21 04:41:18;;;;;;;3.83;3.17;;;;;;;16.03;100.00;97035.94;5078442;28;20257;-81
2023/09/21 04:43:45;;;;;;;5.23;3.40;;;;;;;16.03;100.00;97043.91;5078284;28;20210;-81
2023/09/21 04:46:13;;;;;;;5.23;3.10;;;;;;;16.06;100.00;97036.63;5078768;28;20666;-80
2023/09/21 04:48:41;;;;;;;3.53;2.83;;;;;;;16.10;100.00;97039.59;5078114;28;20589;-80
2023/09/21 04:51:11;;;;;;;3.30;3.00;;;;;;;16.15;100.00;97033.78;5078441;28;20230;-80
2023/09/21 04:53:38;;;;;;;4.70;3.03;;;;;;;16.15;100.00;97037.25;5078282;28;20673;-80
2023/09/21 04:56:05;;;;;;;4.47;3.00;;;;;;;16.15;100.00;97034.59;5076831;28;20211;-80
2023/09/21 04:58:31;;;;;;;5.60;3.20;;;;;;;16.14;100.00;97032.94;5077502;28;20218;-80
2023/09/21 05:00:58;;;;;;;3.13;2.77;;;;;;;16.14;100.00;97030.28;5077302;28;20234;-81
2023/09/21 05:03:24;;;;;;;4.43;3.27;;;;;;;16.13;100.00;97027.75;5077854;28;20218;-81
2023/09/21 05:05:54;;;;;;;5.27;3.10;;;;;;;16.15;100.00;97031.94;5078100;28;20231;-80
2023/09/21 05:08:20;;;;;;;3.67;3.20;;;;;;;16.19;100.00;97035.94;5078501;28;20215;-80
2023/09/21 05:10:49;;;;;;;4.50;3.70;;;;;;;16.17;100.00;97037.94;5080110;28;20231;-80
2023/09/21 05:13:16;;;;;;;6.83;3.57;;;;;;;16.09;100.00;97032.59;5077058;28;20234;-79
2023/09/21 05:15:42;;;;;;;3.80;3.13;;;;;;;16.02;100.00;97037.94;5076973;28;20234;-78
2023/09/21 05:18:08;;;;;;;3.33;3.03;;;;;;;15.93;100.00;97033.59;5077807;28;20207;-78
2023/09/21 05:20:35;;;;;;;3.97;2.90;;;;;;;15.86;100.00;97028.09;5078068;28;20211;-78
2023/09/21 05:23:04;;;;;;;5.30;3.10;;;;;;;15.82;100.00;97028.59;5073934;28;20607;-77
2023/09/21 05:25:31;;;;;;;3.10;2.80;;;;;;;15.76;100.00;97039.91;5071328;28;20216;-77
2023/09/21 05:27:59;;;;;;;4.30;3.03;;;;;;;15.73;100.00;97030.41;5072958;28;20253;-78
2023/09/21 05:30:28;;;;;;;3.83;3.07;;;;;;;15.72;100.00;97027.91;5076516;28;20356;-78
2023/09/21 05:32:56;;;;;;;3.23;2.93;;;;;;;15.68;100.00;97023.91;5077405;28;20810;-79
2023/09/21 05:35:23;;;;;;;3.50;2.93;;;;;;;15.70;100.00;97022.75;5076479;28;20256;-78
2023/09/21 05:37:49;;;;;;;4.30;2.50;;;;;;;15.73;100.00;97024.25;5075458;28;20311;-78
2023/09/21 05:40:17;;;;;;;3.43;2.63;;;;;;;15.79;100.00;97023.59;5074396;28;20211;-78
2023/09/21 05:42:45;;;;;;;3.57;2.93;;;;;;;15.81;100.00;97029.56;5075235;28;20241;-78
2023/09/21 05:45:11;;;;;;;5.00;3.33;;;;;;;15.84;100.00;97023.94;5075949;28;20231;-78
2023/09/21 05:47:38;;;;;;;3.97;3.10;;;;;;;15.86;100.00;97017.44;5076610;28;20573;-78
2023/09/21 05:50:06;;;;;;;4.07;3.27;;;;;;;15.91;100.00;97023.13;5075085;28;20221;-78
2023/09/21 05:52:34;;;;;;;3.20;2.90;;;;;;;15.91;100.00;97014.28;5074052;28;20219;-78
2023/09/21 05:55:01;;;;;;;6.50;3.50;;;;;;;15.95;100.00;97007.63;5073267;28;20211;-79
2023/09/21 05:57:29;;;;;;;3.80;3.23;;;;;;;15.95;100.00;97007.63;5072991;28;20204;-79
2023/09/21 05:59:56;;;;;;;4.87;3.07;;;;;;;15.97;100.00;97005.63;5071783;28;20219;-77
2023/09/21 06:02:22;;;;;;;3.25;2.95;;;;;;;16.00;100.00;96998.13;5071421;28;20782;-80
2023/09/21 06:04:49;;;;;;;3.47;2.73;;;;;;;16.01;100.00;96999.78;5071869;28;20211;-80
2023/09/21 06:07:15;;;;;;;3.43;2.83;;;;;;;16.04;100.00;97000.28;5072226;28;20210;-79
2023/09/21 06:09:44;;;;;;;5.03;3.22;;;;;;;16.17;100.00;96997.97;5071442;28;20804;-78
2023/09/21 06:12:11;;;;;;;2.93;2.57;;;;;;;16.20;100.00;97008.28;5071335;28;20223;-78
2023/09/21 06:14:41;;;;;;;2.87;2.60;;;;;;;16.21;100.00;97009.94;5071515;28;20266;-78
2023/09/21 06:17:10;;;;;;;3.37;2.23;;;;;;;16.23;100.00;97007.97;5071420;28;20211;-79
2023/09/21 06:19:38;;;;;;;4.27;2.30;;;;;;;16.21;100.00;97007.28;5071130;28;20215;-78
2023/09/21 06:22:04;;;;;;;3.23;2.73;;;;;;;16.25;100.00;97007.75;5071542;28;20266;-78
2023/09/21 06:24:31;;;;;;;5.27;2.97;;;;;;;16.29;100.00;97001.94;5072065;28;20209;-78
2023/09/21 06:26:58;;;;;;;2.90;2.40;;;;;;;16.31;100.00;97005.28;5072179;28;20299;-78
2023/09/21 06:29:24;;;;;;;2.83;2.47;;;;;;;16.37;100.00;97001.09;5073730;28;20222;-78
2023/09/21 06:31:54;;;;;;;4.13;2.87;;;;;;;16.43;100.00;96997.78;5075073;28;20721;-78
2023/09/21 06:34:24;;;;;;;3.97;2.90;;;;;;;16.37;100.00;96996.59;5075317;28;20208;-78
2023/09/21 06:36:50;;;;;;;3.47;2.90;;;;;;;16.37;100.00;97001.09;5075205;28;20657;-78
2023/09/21 06:39:17;;;;;;;4.00;2.90;;;;;;;16.42;100.00;96996.97;5075276;28;20203;-78
2023/09/21 06:41:47;;;;;;;4.20;2.90;;;;;;;16.54;100.00;97008.09;5074875;28;20262;-78
2023/09/21 06:44:15;;;;;;;2.83;2.63;;;;;;;16.64;100.00;97004.22;5075453;28;20302;-78
2023/09/21 06:46:41;;;;;;;4.13;2.90;;;;;;;16.69;100.00;96993.88;5074959;28;20749;-79
2023/09/21 06:49:10;;;;;;;2.97;2.60;;;;;;;16.67;100.00;96995.91;5075162;28;20215;-78
2023/09/21 06:51:36;;;;;;;4.60;2.80;;;;;;;16.72;100.00;96996.22;5074516;28;20277;-78
2023/09/21 06:54:03;;;;;;;7.57;2.60;;;;;;;16.69;100.00;97004.56;5074991;28;20215;-78
2023/09/21 06:56:31;;;;;;;3.37;2.53;;;;;;;16.66;100.00;97004.91;5074898;28;20207;-78
2023/09/21 06:58:57;;;;;;;3.30;2.60;;;;;;;16.66;100.00;97002.25;5075337;28;20700;-78
2023/09/21 07:01:26;;;;;;;3.37;2.77;;;;;;;16.70;100.00;97006.22;5074872;28;20322;-78
2023/09/21 07:03:52;;;;;;;3.97;2.50;;;;;;;16.77;100.00;97004.53;5075147;28;20277;-79
2023/09/21 07:06:20;;;;;;;4.07;2.90;;;;;;;16.84;100.00;97002.88;5074687;28;20203;-78
2023/09/21 07:08:47;;;;;;;3.23;2.40;;;;;;;16.93;100.00;96996.47;5074050;28;20223;-79
2023/09/21 07:11:13;;;;;;;3.70;2.67;;;;;;;17.08;100.00;96994.72;5074261;28;20250;-79
2023/09/21 07:13:42;;;;;;;2.40;2.10;;;;;;;17.17;100.00;96988.38;5074521;28;20207;-78
2023/09/21 07:16:09;;;;;;;4.20;3.07;;;;;;;17.26;100.00;96998.00;5074542;28;20214;-78
2023/09/21 07:18:36;;;;;;;3.17;2.63;;;;;;;17.37;100.00;96989.63;5074696;28;20230;-78
2023/09/21 07:21:03;;;;;;;3.93;2.70;;;;;;;17.50;100.00;96984.53;5074997;28;20243;-79
2023/09/21 07:23:31;;;;;;;3.97;3.00;;;;;;;17.61;100.00;96991.34;5074331;28;20234;-80
2023/09/21 07:25:58;;;;;;;4.00;3.10;;;;;;;17.75;100.00;96988.72;5075793;28;20218;-81
2023/09/21 07:28:25;;;;;;;4.50;3.00;;;;;;;17.91;100.00;96977.09;5076064;28;20249;-81
2023/09/21 07:30:52;;;;;;;3.10;2.80;;;;;;;18.03;100.00;96979.16;5075531;28;20230;-81
2023/09/21 07:33:20;;;;;;;4.47;2.90;;;;;;;18.18;100.00;96973.84;5075279;28;20204;-81
2023/09/21 07:35:47;;;;;;;3.00;2.50;;;;;;;18.33;100.00;96972.06;5075238;28;20215;-82
2023/09/21 07:38:13;;;;;;;3.90;2.60;;;;;;;18.45;100.00;96971.44;5076055;28;20211;-81
2023/09/21 07:40:41;;;;;;;5.47;2.70;;;;;;;18.58;100.00;96966.28;5075616;28;20556;-78
2023/09/21 07:43:08;;;;;;;5.10;2.70;;;;;;;18.71;100.00;96961.13;5073786;28;20227;-78
2023/09/21 07:45:35;;;;;;;3.57;2.60;;;;;;;18.84;100.00;96961.28;5073998;28;20207;-78
2023/09/21 07:48:01;;;;;;;3.90;2.77;;;;;;;19.01;100.00;96957.41;5074050;28;20543;-78
2023/09/21 07:50:32;;;;;;;4.73;2.70;;;;;;;19.12;100.00;96946.22;5073879;28;20206;-78
2023/09/21 07:52:59;;;;;;;3.57;2.80;;;;;;;19.30;100.00;96943.16;5073722;28;20638;-78
2023/09/21 07:55:26;;;;;;;3.63;3.27;;;;;;;19.43;99.55;96935.28;5074360;28;20379;-78
2023/09/21 07:57:53;;;;;;;4.23;2.60;;;;;;;19.58;98.47;96936.06;5074219;28;20645;-78
2023/09/21 08:00:21;;;;;;;4.53;2.87;;;;;;;19.74;97.51;96930.47;5074035;28;20207;-78
2023/09/21 08:02:48;;;;;;;3.10;2.70;;;;;;;19.86;95.99;96920.88;5073912;28;20558;-78
2023/09/21 08:05:15;;;;;;;4.50;2.73;;;;;;;19.94;95.54;96913.53;5074266;28;20207;-78
2023/09/21 08:07:42;;;;;;;3.63;2.40;;;;;;;20.04;93.45;96914.03;5073607;28;20760;-78
2023/09/21 08:10:10;;;;;;;3.20;2.50;;;;;;;20.10;92.41;96907.91;5074364;28;20215;-78
2023/09/21 08:12:40;;;;;;;2.97;2.53;;;;;;;20.20;91.27;96907.59;5073461;28;20238;-78
2023/09/21 08:15:11;;;;;;;3.33;2.70;;;;;;;20.43;90.38;96895.56;5073889;28;20211;-78
2023/09/21 08:17:38;;;;;;;3.73;2.50;;;;;;;20.66;90.43;96888.06;5073750;28;20261;-78
2023/09/21 08:20:09;;;;;;;2.77;2.47;;;;;;;20.92;87.51;96892.78;5073936;28;20670;-78
2023/09/21 08:22:35;;;;;;;3.17;2.33;;;;;;;21.18;85.81;96892.88;5073062;28;20238;-78
2023/09/21 08:25:02;;;;;;;3.40;2.43;;;;;;;21.51;84.93;96889.25;5073794;28;20207;-78
2023/09/21 08:27:30;;;;;;;2.80;2.40;;;;;;;21.86;82.59;96877.34;5074027;28;20207;-78
2023/09/21 08:29:57;;;;;;;4.70;2.20;;;;;;;22.07;80.61;96885.19;5073791;28;20219;-78
2023/09/21 08:32:25;;;;;;;2.50;2.30;;;;;;;22.15;78.88;96884.16;5073261;28;20576;-78
2023/09/21 08:34:52;;;;;;;2.70;2.10;;;;;;;22.18;79.81;96892.66;5073929;28;20211;-78
2023/09/21 08:37:19;;;;;;;3.60;2.37;;;;;;;22.17;80.60;96890.16;5073713;28;20590;-78
2023/09/21 08:39:45;;;;;;;3.40;1.97;;;;;;;22.11;80.79;96891.84;5073285;28;20566;-78
2023/09/21 08:42:12;;;;;;;2.80;2.37;;;;;;;22.08;80.14;96886.03;5073299;28;20226;-78
2023/09/21 08:44:40;;;;;;;3.13;2.10;;;;;;;22.11;80.25;96886.44;5073362;28;20214;-78
2023/09/21 08:47:10;;;;;;;3.13;2.20;;;;;;;22.17;79.89;96884.78;5073308;28;20203;-78
2023/09/21 08:49:39;;;;;;;2.83;2.37;;;;;;;22.22;79.95;96875.06;5073194;28;20218;-78
2023/09/21 08:52:09;;;;;;;3.57;2.20;;;;;;;22.35;79.21;96876.91;5072414;28;20234;-78
2023/09/21 08:54:39;;;;;;;2.97;2.10;;;;;;;22.46;77.81;96881.69;5073669;28;20215;-78
2023/09/21 08:57:07;;;;;;;2.27;2.07;;;;;;;22.55;77.17;96883.94;5073224;28;20199;-78
2023/09/21 08:59:36;;;;;;;2.53;2.13;;;;;;;22.67;75.62;96884.94;5073038;28;20211;-78
2023/09/21 09:02:02;;;;;;;2.27;1.97;;;;;;;22.60;71.25;96857.22;5072841;28;20231;-78
2023/09/21 09:04:30;;;;;;;2.50;2.30;;;;;;;22.82;72.36;96874.75;5072725;28;20345;-78
2023/09/21 09:06:58;;;;;;;2.20;2.00;;;;;;;22.92;69.07;96853.56;5073152;28;20207;-79
2023/09/21 09:09:25;;;;;;;2.20;1.90;;;;;;;23.03;68.63;96855.59;5072813;28;20285;-78
2023/09/21 09:11:53;;;;;;;2.50;2.10;;;;;;;23.20;67.61;96846.03;5072679;28;20772;-78
2023/09/21 09:14:20;;;;;;;2.90;2.23;;;;;;;23.43;68.50;96851.72;5073276;28;20211;-78
2023/09/21 09:16:47;;;;;;;3.20;2.20;;;;;;;23.65;68.68;96844.91;5073287;28;20211;-78
2023/09/21 09:19:14;;;;;;;3.47;2.03;;;;;;;23.72;68.27;96855.66;5073018;28;20636;-78
2023/09/21 09:21:41;;;;;;;2.27;1.83;;;;;;;23.80;67.12;96842.72;5072474;28;20747;-78
2023/09/21 09:24:11;;;;;;;3.47;1.90;;;;;;;23.95;67.50;96831.66;5072760;28;20288;-78
2023/09/21 09:26:38;;;;;;;5.03;2.33;;;;;;;24.10;65.18;96800.56;5072706;28;20346;-78
2023/09/21 09:29:05;;;;;;;2.90;2.10;;;;;;;24.22;64.83;96808.75;5073705;28;20207;-78
2023/09/21 09:31:32;;;;;;;2.57;2.17;;;;;;;24.24;64.20;96804.78;5071942;28;20223;-78
2023/09/21 09:34:00;;;;;;;2.70;2.03;;;;;;;24.37;64.02;96795.72;5072803;28;20239;-78
2023/09/21 09:36:27;;;;;;;2.43;2.00;;;;;;;24.51;63.54;96791.84;5072433;28;20294;-78
2023/09/21 09:38:55;;;;;;;2.40;2.20;;;;;;;24.68;62.25;96780.22;5072875;28;20203;-78
2023/09/21 09:41:24;;;;;;;2.80;1.90;;;;;;;24.75;62.37;96778.25;5071848;28;20262;-78
2023/09/21 09:43:53;;;;;;;3.27;1.90;;;;;;;24.79;61.19;96784.88;5072628;28;20234;-79
2023/09/21 09:46:23;;;;;;;2.27;2.00;;;;;;;24.84;61.35;96778.78;5072780;28;20596;-78
2023/09/21 09:48:51;;;;;;;2.43;1.90;;;;;;;24.82;61.37;96784.41;5072636;28;20283;-78
2023/09/21 09:51:24;;;;;;;1.60;1.50;;;;;;;24.91;60.62;96777.66;5072421;28;20223;-78
2023/09/21 09:53:53;;;;;;;2.13;1.93;;;;;;;24.84;58.77;96760.69;5072674;28;20233;-78
2023/09/21 09:56:22;;;;;;;2.37;2.10;;;;;;;24.98;59.84;96767.56;5072764;28;20285;-78
2023/09/21 09:58:51;;;;;;;2.70;1.87;;;;;;;25.09;59.56;96774.91;5072439;28;20783;-78
2023/09/21 10:01:19;;;;;;;2.10;1.90;;;;;;;25.15;58.79;96767.75;5072244;28;20273;-78
2023/09/21 10:03:50;;;;;;;2.27;1.80;;;;;;;25.20;57.99;96748.97;5075108;28;20758;-81
2023/09/21 10:06:17;;;;;;;2.33;2.00;;;;;;;25.25;58.31;96746.44;5076341;28;20651;-79
2023/09/21 10:08:46;;;;;;;2.43;2.00;;;;;;;25.35;57.11;96739.41;5076196;28;20681;-78
2023/09/21 10:11:15;;;;;;;2.27;1.97;;;;;;;25.47;56.65;96726.72;5076563;28;20250;-78
2023/09/21 10:13:51;;;;;;;2.00;1.87;;;;;;;25.52;56.91;96736.84;5077728;28;20261;-79
2023/09/21 10:16:19;;;;;;;3.53;2.30;;;;;;;25.44;56.89;96732.63;5077529;28;20199;-80
2023/09/21 10:18:46;;;;;;;2.20;1.90;;;;;;;25.43;56.78;96727.44;5078360;28;20234;-80
2023/09/21 10:21:23;;;;;;;1.93;1.70;;;;;;;25.53;57.01;96722.28;5075897;28;20242;-79
2023/09/21 10:24:04;;;;;;;2.60;1.90;;;;;;;25.56;57.57;96728.06;5076848;28;20231;-79
2023/09/21 10:26:34;;;;;;;3.37;2.20;;;;;;;25.63;57.12;96734.16;5075566;28;20253;-79
2023/09/21 10:29:06;;;;;;;2.15;1.80;;;;;;;25.71;56.70;96724.84;5076128;28;20245;-79
2023/09/21 10:31:34;;;;;;;1.93;1.73;;;;;;;25.56;55.60;96706.41;5076077;28;20870;-79
2023/09/21 10:34:12;;;;;;;1.80;1.63;;;;;;;25.75;56.11;96709.81;5076876;28;20207;-81
2023/09/21 10:36:44;;;;;;;2.00;1.60;;;;;;;25.77;55.57;96703.09;5078976;28;20226;-81
2023/09/21 10:39:24;;;;;;;4.70;2.10;;;;;;;25.80;55.04;96697.25;5079969;28;20203;-82
2023/09/21 10:41:52;;;;;;;2.30;1.75;;;;;;;25.80;53.94;96686.41;5079397;28;20597;-82
2023/09/21 10:44:52;;;;;;;2.10;1.90;;;;;;;25.99;53.21;96679.84;5081419;28;20231;-82
2023/09/21 10:47:28;;;;;;;2.57;1.80;;;;;;;26.12;52.31;96671.47;5082914;28;20207;-82
2023/09/21 10:49:56;;;;;;;1.90;1.70;;;;;;;26.29;52.86;96691.34;5083472;28;20285;-81
2023/09/21 10:52:25;;;;;;;1.80;1.63;;;;;;;26.26;50.91;96702.63;5084699;28;20231;-81
2023/09/21 10:54:52;;;;;;;1.67;1.57;;;;;;;26.29;51.20;96702.19;5085548;28;20207;-81
2023/09/21 10:57:22;;;;;;;1.90;1.70;;;;;;;26.42;51.56;96707.31;5085233;28;20208;-81
2023/09/21 10:59:50;;;;;;;3.20;1.80;;;;;;;26.34;51.94;96699.53;5084673;28;20221;-81
2023/09/21 11:02:17;;;;;;;1.60;1.50;;;;;;;26.36;51.75;96702.88;5084769;28;20402;-81
2023/09/21 11:04:45;;;;;;;1.43;1.27;;;;;;;26.34;51.04;96686.00;5083875;28;20224;-81
2023/09/21 11:07:13;;;;;;;1.53;1.43;;;;;;;26.43;50.84;96689.16;5084495;28;20215;-81
2023/09/21 11:09:39;;;;;;;2.73;1.80;;;;;;;26.50;49.38;96677.13;5084828;28;20261;-81
2023/09/21 11:12:08;;;;;;;2.03;1.60;;;;;;;26.52;49.73;96675.00;5083952;28;20233;-81
2023/09/21 11:14:34;;;;;;;2.77;1.77;;;;;;;26.61;50.08;96683.59;5083306;28;20306;-81
2023/09/21 11:17:04;;;;;;;1.75;1.63;;;;;;;26.62;50.19;96680.66;5083233;28;20208;-81
2023/09/21 11:19:31;;;;;;;1.83;1.60;;;;;;;26.68;49.38;96673.44;5083198;28;20246;-81
2023/09/21 11:22:01;;;;;;;1.70;1.60;;;;;;;26.66;48.49;96664.75;5082679;28;20223;-81
2023/09/21 11:24:28;;;;;;;2.73;1.60;;;;;;;26.72;47.79;96648.34;5084547;28;20327;-81
2023/09/21 11:26:55;;;;;;;1.63;1.53;;;;;;;26.74;47.06;96656.22;5084651;28;20633;-81
2023/09/21 11:29:21;;;;;;;1.88;1.70;;;;;;;26.57;48.49;96661.59;5085062;28;20306;-81